sensor_id;sensor_type;location;lat;lon;timestamp;pressure;altitude;pressure_sealevel;temperature;humidity
18323;BME280;9287;49.456;11.064;2023-04-01T00:00:35;96686.72;;;9.02;100.00
18323;BME280;9287;49.456;11.064;2023-04-01T00:03:03;96705.38;;;9.00;100.00
18323;BME280;9287;49.456;11.064;2023-04-01T00:05:33;96691.06;;;9.07;100.00
18323;BME280;9287;49.456;11.064;2023-04-01T00:08:02;96682.09;;;9.06;100.00
18323;BME280;9287;49.456;11.064;2023-04-01T00:10:29;96685.66;;;9.11;100.00
18323;BME280;9287;49.456;11.064;2023-04-01T00:12:57;96679.88;;;9.16;100.00
18323;BME280;9287;49.456;11.064;2023-04-01T00:15:26;96679.06;;;9.12;100.00
18323;BME280;9287;49.456;11.064;2023-04-01T00:17:54;96683.72;;;9.11;100.00
18323;BME280;9287;49.456;11.064;2023-04-01T00:20:22;96676.00;;;9.17;100.00
18323;BME280;9287;49.456;11.064;2023-04-01T00:22:49;96683.00;;;9.18;100.00
18323;BME280;9287;49.456;11.064;2023-04-01T00:25:17;96689.63;;;9.17;100.00
18323;BME280;9287;49.456;11.064;2023-04-01T00:27:45;96680.28;;;9.18;100.00
18323;BME280;9287;49.456;11.064;2023-04-01T00:30:14;96684.16;;;9.17;100.00
18323;BME280;9287;49.456;11.064;2023-04-01T00:32:43;96674.44;;;9.19;100.00
18323;BME280;9287;49.456;11.064;2023-04-01T00:35:11;96673.66;;;9.19;100.00
18323;BME280;9287;49.456;11.064;2023-04-01T00:37:39;96678.72;;;9.17;100.00
18323;BME280;9287;49.456;11.064;2023-04-01T00:40:20;96678.34;;;9.22;100.00
18323;BME280;9287;49.456;11.064;2023-04-01T00:42:49;96677.63;;;9.25;100.00
18323;BME280;9287;49.456;11.064;2023-04-01T00:45:32;96683.03;;;9.21;100.00
18323;BME280;9287;49.456;11.064;2023-04-01T00:48:06;96685.38;;;9.23;100.00
18323;BME280;9287;49.456;11.064;2023-04-01T00:50:35;96683.06;;;9.25;100.00
18323;BME280;9287;49.456;11.064;2023-04-01T00:53:05;96683.06;;;9.25;100.00
18323;BME280;9287;49.456;11.064;2023-04-01T00:55:40;96680.75;;;9.27;100.00
18323;BME280;9287;49.456;11.064;2023-04-01T00:58:14;96676.03;;;9.24;100.00
18323;BME280;9287;49.456;11.064;2023-04-01T01:00:45;96683.75;;;9.15;100.00
18323;BME280;9287;49.456;11.064;2023-04-01T01:03:15;96681.03;;;9.18;100.00
18323;BME280;9287;49.456;11.064;2023-04-01T01:09:08;96682.25;;;9.21;100.00
18323;BME280;9287;49.456;11.064;2023-04-01T01:11:42;96681.50;;;9.24;100.00
18323;BME280;9287;49.456;11.064;2023-04-01T01:14:22;96679.09;;;9.19;100.00
18323;BME280;9287;49.456;11.064;2023-04-01T01:16:58;96676.78;;;9.21;100.00
18323;BME280;9287;49.456;11.064;2023-04-01T01:19:50;96687.28;;;9.19;100.00
18323;BME280;9287;49.456;11.064;2023-04-01T01:22:38;96684.56;;;9.19;100.00
18323;BME280;9287;49.456;11.064;2023-04-01T01:25:20;96680.66;;;9.16;100.00
18323;BME280;9287;49.456;11.064;2023-04-01T01:28:06;96679.09;;;9.19;100.00
18323;BME280;9287;49.456;11.064;2023-04-01T01:30:46;96675.91;;;9.10;100.00
18323;BME280;9287;49.456;11.064;2023-04-01T01:33:29;96672.81;;;9.11;100.00
18323;BME280;9287;49.456;11.064;2023-04-01T01:36:04;96673.59;;;9.12;100.00
18323;BME280;9287;49.456;11.064;2023-04-01T01:38:34;96669.72;;;9.13;100.00
18323;BME280;9287;49.456;11.064;2023-04-01T01:41:06;96664.66;;;9.11;100.00
18323;BME280;9287;49.456;11.064;2023-04-01T01:43:38;96672.88;;;9.15;100.00
18323;BME280;9287;49.456;11.064;2023-04-01T01:46:11;96665.09;;;9.17;100.00
18323;BME280;9287;49.456;11.064;2023-04-01T01:48:42;96668.19;;;9.15;100.00
18323;BME280;9287;49.456;11.064;2023-04-01T01:51:12;96666.66;;;9.18;100.00
18323;BME280;9287;49.456;11.064;2023-04-01T01:53:40;96659.66;;;9.17;100.00
18323;BME280;9287;49.456;11.064;2023-04-01T01:56:10;96663.50;;;9.12;100.00
18323;BME280;9287;49.456;11.064;2023-04-01T01:58:40;96659.66;;;9.17;100.00
18323;BME280;9287;49.456;11.064;2023-04-01T02:01:13;96662.38;;;9.17;100.00
18323;BME280;9287;49.456;11.064;2023-04-01T02:03:43;96652.66;;;9.16;100.00
18323;BME280;9287;49.456;11.064;2023-04-01T02:06:18;96649.56;;;9.17;100.00
18323;BME280;9287;49.456;11.064;2023-04-01T02:08:50;96654.97;;;9.14;100.00
18323;BME280;9287;49.456;11.064;2023-04-01T02:11:22;96659.22;;;9.11;100.00
18323;BME280;9287;49.456;11.064;2023-04-01T02:13:54;96647.19;;;9.16;100.00
18323;BME280;9287;49.456;11.064;2023-04-01T02:16:26;96658.09;;;9.16;100.00
18323;BME280;9287;49.456;11.064;2023-04-01T02:18:58;96668.22;;;9.19;100.00
18323;BME280;9287;49.456;11.064;2023-04-01T02:21:31;96660.41;;;9.14;100.00
18323;BME280;9287;49.456;11.064;2023-04-01T02:24:01;96665.09;;;9.17;100.00
18323;BME280;9287;49.456;11.064;2023-04-01T02:26:30;96669.78;;;9.20;100.00
18323;BME280;9287;49.456;11.064;2023-04-01T02:28:59;96670.56;;;9.20;100.00
18323;BME280;9287;49.456;11.064;2023-04-01T02:31:28;96663.16;;;9.21;100.00
18323;BME280;9287;49.456;11.064;2023-04-01T02:33:56;96668.19;;;9.15;100.00
18323;BME280;9287;49.456;11.064;2023-04-01T02:36:24;96664.69;;;9.15;100.00
18323;BME280;9287;49.456;11.064;2023-04-01T02:38:54;96666.66;;;9.18;100.00
18323;BME280;9287;49.456;11.064;2023-04-01T02:41:25;96663.53;;;9.16;100.00
18323;BME280;9287;49.456;11.064;2023-04-01T02:43:53;96672.13;;;9.18;100.00
18323;BME280;9287;49.456;11.064;2023-04-01T02:46:21;96672.88;;;9.15;100.00
18323;BME280;9287;49.456;11.064;2023-04-01T02:48:49;96670.56;;;9.17;100.00
18323;BME280;9287;49.456;11.064;2023-04-01T02:51:17;96672.03;;;9.11;100.00
18323;BME280;9287;49.456;11.064;2023-04-01T02:53:45;96674.38;;;9.12;100.00
18323;BME280;9287;49.456;11.064;2023-04-01T02:56:14;96680.72;;;9.23;100.00
18323;BME280;9287;49.456;11.064;2023-04-01T02:58:42;96676.78;;;9.21;100.00
18323;BME280;9287;49.456;11.064;2023-04-01T03:01:09;96683.75;;;9.18;100.00
18323;BME280;9287;49.456;11.064;2023-04-01T03:03:37;96681.50;;;9.24;100.00
18323;BME280;9287;49.456;11.064;2023-04-01T03:06:06;96684.56;;;9.19;100.00
18323;BME280;9287;49.456;11.064;2023-04-01T03:08:34;96688.84;;;9.20;100.00
18323;BME280;9287;49.456;11.064;2023-04-01T03:11:02;96689.84;;;9.04;100.00
18323;BME280;9287;49.456;11.064;2023-04-01T03:13:31;96688.00;;;9.12;100.00
18323;BME280;9287;49.456;11.064;2023-04-01T03:15:59;96682.19;;;9.14;100.00
18323;BME280;9287;49.456;11.064;2023-04-01T03:18:26;96693.06;;;9.14;100.00
18323;BME280;9287;49.456;11.064;2023-04-01T03:20:54;96694.66;;;9.15;100.00
18323;BME280;9287;49.456;11.064;2023-04-01T03:23:22;96698.16;;;9.15;100.00
18323;BME280;9287;49.456;11.064;2023-04-01T03:25:50;96690.78;;;9.16;100.00
18323;BME280;9287;49.456;11.064;2023-04-01T03:28:18;96696.50;;;9.07;100.00
18323;BME280;9287;49.456;11.064;2023-04-01T03:30:47;96696.22;;;9.16;100.00
18323;BME280;9287;49.456;11.064;2023-04-01T03:33:15;96691.50;;;9.13;100.00
18323;BME280;9287;49.456;11.064;2023-04-01T03:35:42;96698.44;;;9.06;100.00
18323;BME280;9287;49.456;11.064;2023-04-01T03:38:10;96696.13;;;9.08;100.00
18323;BME280;9287;49.456;11.064;2023-04-01T03:40:41;96700.00;;;9.07;100.00
18323;BME280;9287;49.456;11.064;2023-04-01T03:43:09;96709.00;;;9.12;100.00
18323;BME280;9287;49.456;11.064;2023-04-01T03:45:43;96704.81;;;9.18;100.00
18323;BME280;9287;49.456;11.064;2023-04-01T03:48:12;96705.53;;;9.15;100.00
18323;BME280;9287;49.456;11.064;2023-04-01T03:50:41;96713.34;;;9.16;100.00
18323;BME280;9287;49.456;11.064;2023-04-01T03:53:09;96714.88;;;9.14;100.00
18323;BME280;9287;49.456;11.064;2023-04-01T03:55:37;96714.88;;;9.14;100.00
18323;BME280;9287;49.456;11.064;2023-04-01T03:58:05;96703.97;;;9.14;100.00
18323;BME280;9287;49.456;11.064;2023-04-01T04:00:33;96711.63;;;9.04;100.00
18323;BME280;9287;49.456;11.064;2023-04-01T04:03:01;96706.94;;;9.01;100.00
18323;BME280;9287;49.456;11.064;2023-04-01T04:05:36;96721.38;;;9.05;100.00
18323;BME280;9287;49.456;11.064;2023-04-01T04:08:16;96713.94;;;8.99;100.00
18323;BME280;9287;49.456;11.064;2023-04-01T04:10:54;96715.56;;;9.07;100.00
18323;BME280;9287;49.456;11.064;2023-04-01T04:13:22;96715.59;;;9.11;100.00
18323;BME280;9287;49.456;11.064;2023-04-01T04:15:50;96710.16;;;9.11;100.00
18323;BME280;9287;49.456;11.064;2023-04-01T04:18:17;96721.78;;;9.07;100.00
18323;BME280;9287;49.456;11.064;2023-04-01T04:20:47;96720.97;;;9.03;100.00
18323;BME280;9287;49.456;11.064;2023-04-01T04:23:19;96724.09;;;9.05;100.00
18323;BME280;9287;49.456;11.064;2023-04-01T04:25:58;96729.88;;;9.00;100.00
18323;BME280;9287;49.456;11.064;2023-04-01T04:28:33;96723.31;;;9.05;100.00
18323;BME280;9287;49.456;11.064;2023-04-01T04:31:08;96721.78;;;9.07;100.00
18323;BME280;9287;49.456;11.064;2023-04-01T04:33:41;96724.09;;;9.05;100.00
18323;BME280;9287;49.456;11.064;2023-04-01T04:36:10;96710.94;;;9.11;100.00
18323;BME280;9287;49.456;11.064;2023-04-01T04:38:38;96729.63;;;9.13;100.00
18323;BME280;9287;49.456;11.064;2023-04-01T04:41:08;96725.25;;;9.04;100.00
18323;BME280;9287;49.456;11.064;2023-04-01T04:43:36;96731.84;;;9.03;100.00
18323;BME280;9287;49.456;11.064;2023-04-01T04:46:05;96724.03;;;8.98;100.00
18323;BME280;9287;49.456;11.064;2023-04-01T04:48:41;96730.22;;;8.95;100.00
18323;BME280;9287;49.456;11.064;2023-04-01T04:51:36;96732.59;;;9.00;100.00
18323;BME280;9287;49.456;11.064;2023-04-01T04:54:19;96724.69;;;8.88;100.00
18323;BME280;9287;49.456;11.064;2023-04-01T04:57:11;96726.25;;;8.89;100.00
18323;BME280;9287;49.456;11.064;2023-04-01T05:00:06;96725.50;;;8.92;100.00
18323;BME280;9287;49.456;11.064;2023-04-01T05:02:36;96721.91;;;8.81;100.00
18323;BME280;9287;49.456;11.064;2023-04-01T05:05:05;96727.66;;;8.76;100.00
18323;BME280;9287;49.456;11.064;2023-04-01T05:07:34;96731.22;;;8.80;100.00
18323;BME280;9287;49.456;11.064;2023-04-01T05:10:02;96719.91;;;8.78;100.00
18323;BME280;9287;49.456;11.064;2023-04-01T05:12:30;96728.75;;;8.71;100.00
18323;BME280;9287;49.456;11.064;2023-04-01T05:15:00;96728.38;;;8.73;100.00
18323;BME280;9287;49.456;11.064;2023-04-01T05:17:27;96722.63;;;8.78;100.00
18323;BME280;9287;49.456;11.064;2023-04-01T05:19:55;96728.84;;;8.79;100.00
18323;BME280;9287;49.456;11.064;2023-04-01T05:22:24;96738.13;;;8.74;100.00
18323;BME280;9287;49.456;11.064;2023-04-01T05:25:01;96727.66;;;8.76;100.00
18323;BME280;9287;49.456;11.064;2023-04-01T05:27:43;96723.00;;;8.77;100.00
18323;BME280;9287;49.456;11.064;2023-04-01T05:30:24;96729.19;;;8.73;100.00
18323;BME280;9287;49.456;11.064;2023-04-01T05:33:00;96726.13;;;8.79;100.00
18323;BME280;9287;49.456;11.064;2023-04-01T05:35:28;96732.38;;;8.79;100.00
18323;BME280;9287;49.456;11.064;2023-04-01T05:37:56;96729.19;;;8.73;100.00
18323;BME280;9287;49.456;11.064;2023-04-01T05:40:26;96730.78;;;8.78;100.00
18323;BME280;9287;49.456;11.064;2023-04-01T05:42:54;96727.72;;;8.83;100.00
18323;BME280;9287;49.456;11.064;2023-04-01T05:45:22;96723.47;;;8.82;100.00
18323;BME280;9287;49.456;11.064;2023-04-01T05:47:50;96720.66;;;8.75;100.00
18323;BME280;9287;49.456;11.064;2023-04-01T05:50:18;96726.94;;;8.79;100.00
18323;BME280;9287;49.456;11.064;2023-04-01T05:52:46;96734.06;;;8.91;100.00
18323;BME280;9287;49.456;11.064;2023-04-01T05:55:14;96723.06;;;8.84;100.00
18323;BME280;9287;49.456;11.064;2023-04-01T05:57:44;96712.91;;;8.77;100.00
18323;BME280;9287;49.456;11.064;2023-04-01T06:00:12;96724.63;;;8.81;100.00
18323;BME280;9287;49.456;11.064;2023-04-01T06:02:41;96731.69;;;8.89;100.00
18323;BME280;9287;49.456;11.064;2023-04-01T06:05:14;96739.88;;;8.89;100.00
18323;BME280;9287;49.456;11.064;2023-04-01T06:07:43;96733.31;;;8.94;100.00
18323;BME280;9287;49.456;11.064;2023-04-01T06:10:15;96740.38;;;8.98;100.00
18323;BME280;9287;49.456;11.064;2023-04-01T06:12:52;96736.50;;;8.99;100.00
18323;BME280;9287;49.456;11.064;2023-04-01T06:15:30;96738.03;;;9.00;100.00
18323;BME280;9287;49.456;11.064;2023-04-01T06:24:15;96738.72;;;8.90;100.00
18323;BME280;9287;49.456;11.064;2023-04-01T06:26:50;96728.22;;;8.92;100.00
18323;BME280;9287;49.456;11.064;2023-04-01T06:29:41;96730.97;;;8.92;100.00
18323;BME280;9287;49.456;11.064;2023-04-01T06:32:48;96736.56;;;9.06;100.00
18323;BME280;9287;49.456;11.064;2023-04-01T06:35:35;96739.84;;;9.23;100.00
18323;BME280;9287;49.456;11.064;2023-04-01T06:38:22;96743.72;;;9.22;100.00
18323;BME280;9287;49.456;11.064;2023-04-01T06:43:56;96748.38;;;9.18;100.00
18323;BME280;9287;49.456;11.064;2023-04-01T06:46:37;96742.56;;;9.23;100.00
18323;BME280;9287;49.456;11.064;2023-04-01T06:49:24;96742.97;;;9.25;100.00
18323;BME280;9287;49.456;11.064;2023-04-01T06:52:00;96746.53;;;9.29;100.00
18323;BME280;9287;49.456;11.064;2023-04-01T06:54:31;96740.84;;;9.45;100.00
18323;BME280;9287;49.456;11.064;2023-04-01T06:57:04;96738.50;;;9.43;100.00
18323;BME280;9287;49.456;11.064;2023-04-01T06:59:34;96743.31;;;9.60;100.00
18323;BME280;9287;49.456;11.064;2023-04-01T07:02:18;96739.56;;;9.75;100.00
18323;BME280;9287;49.456;11.064;2023-04-01T07:04:50;96745.13;;;9.90;100.00
18323;BME280;9287;49.456;11.064;2023-04-01T07:07:23;96745.22;;;10.00;100.00
18323;BME280;9287;49.456;11.064;2023-04-01T07:09:56;96737.31;;;9.85;100.00
18323;BME280;9287;49.456;11.064;2023-04-01T07:12:36;96734.19;;;9.83;100.00
18323;BME280;9287;49.456;11.064;2023-04-01T07:15:14;96728.81;;;9.93;100.00
18323;BME280;9287;49.456;11.064;2023-04-01T07:17:47;96733.56;;;10.07;100.00
18323;BME280;9287;49.456;11.064;2023-04-01T07:20:22;96734.28;;;9.97;100.00
18323;BME280;9287;49.456;11.064;2023-04-01T07:22:55;96730.75;;;9.93;100.00
18323;BME280;9287;49.456;11.064;2023-04-01T07:25:25;96725.56;;;9.77;100.00
18323;BME280;9287;49.456;11.064;2023-04-01T07:28:00;96729.59;;;9.94;100.00
18323;BME280;9287;49.456;11.064;2023-04-01T07:30:33;96727.19;;;9.89;100.00
18323;BME280;9287;49.456;11.064;2023-04-01T07:33:11;96731.16;;;9.95;100.00
18323;BME280;9287;49.456;11.064;2023-04-01T07:35:47;96724.59;;;10.06;100.00
18323;BME280;9287;49.456;11.064;2023-04-01T07:38:24;96725.13;;;10.19;100.00
18323;BME280;9287;49.456;11.064;2023-04-01T07:40:59;96724.34;;;10.22;100.00
18323;BME280;9287;49.456;11.064;2023-04-01T07:43:43;96726.28;;;10.18;100.00
18323;BME280;9287;49.456;11.064;2023-04-01T07:46:23;96731.97;;;9.99;100.00
18323;BME280;9287;49.456;11.064;2023-04-01T07:49:07;96739.41;;;10.02;100.00
18323;BME280;9287;49.456;11.064;2023-04-01T07:52:11;96746.06;;;10.08;100.00
18323;BME280;9287;49.456;11.064;2023-04-01T07:55:23;96739.50;;;10.16;100.00
18323;BME280;9287;49.456;11.064;2023-04-01T07:58:24;96740.63;;;10.11;100.00
18323;BME280;9287;49.456;11.064;2023-04-01T08:01:20;96752.84;;;10.28;100.00
18323;BME280;9287;49.456;11.064;2023-04-01T08:04:05;96761.09;;;10.35;100.00
18323;BME280;9287;49.456;11.064;2023-04-01T08:07:01;96756.81;;;10.38;100.00
18323;BME280;9287;49.456;11.064;2023-04-01T08:09:38;96747.81;;;10.30;100.00
18323;BME280;9287;49.456;11.064;2023-04-01T08:12:18;96752.09;;;10.31;100.00
18323;BME280;9287;49.456;11.064;2023-04-01T08:14:58;96744.66;;;10.28;100.00
18323;BME280;9287;49.456;11.064;2023-04-01T08:17:34;96750.22;;;10.42;100.00
18323;BME280;9287;49.456;11.064;2023-04-01T08:20:23;96754.94;;;10.49;100.00
18323;BME280;9287;49.456;11.064;2023-04-01T08:22:58;96744.03;;;10.53;100.00
18323;BME280;9287;49.456;11.064;2023-04-01T08:25:29;96751.06;;;10.54;98.80
18323;BME280;9287;49.456;11.064;2023-04-01T08:28:00;96737.78;;;10.49;98.95
18323;BME280;9287;49.456;11.064;2023-04-01T08:30:37;96732.28;;;10.45;97.73
18323;BME280;9287;49.456;11.064;2023-04-01T08:33:12;96744.00;;;10.45;99.53
18323;BME280;9287;49.456;11.064;2023-04-01T08:35:46;96744.03;;;10.53;99.96
18323;BME280;9287;49.456;11.064;2023-04-01T08:38:19;96743.28;;;10.56;97.79
18323;BME280;9287;49.456;11.064;2023-04-01T08:41:00;96736.25;;;10.51;96.84
18323;BME280;9287;49.456;11.064;2023-04-01T08:46:54;96738.53;;;10.45;97.31
18323;BME280;9287;49.456;11.064;2023-04-01T08:49:56;96729.94;;;10.43;98.23
18323;BME280;9287;49.456;11.064;2023-04-01T08:52:36;96738.47;;;10.31;95.44
18323;BME280;9287;49.456;11.064;2023-04-01T08:58:13;96736.25;;;10.55;98.96
18323;BME280;9287;49.456;11.064;2023-04-01T09:00:46;96754.97;;;10.53;95.62
18323;BME280;9287;49.456;11.064;2023-04-01T09:03:41;96737.84;;;10.56;97.58
18323;BME280;9287;49.456;11.064;2023-04-01T09:06:29;96744.00;;;10.45;93.84
18323;BME280;9287;49.456;11.064;2023-04-01T09:12:17;96736.22;;;10.48;94.84
18323;BME280;9287;49.456;11.064;2023-04-01T09:15:21;96745.63;;;10.54;95.76
18323;BME280;9287;49.456;11.064;2023-04-01T09:21:04;96735.47;;;10.58;95.07
18323;BME280;9287;49.456;11.064;2023-04-01T09:24:00;96735.13;;;10.63;95.98
18323;BME280;9287;49.456;11.064;2023-04-01T09:26:47;96731.28;;;10.78;95.91
18323;BME280;9287;49.456;11.064;2023-04-01T09:29:48;96735.97;;;10.77;93.97
18323;BME280;9287;49.456;11.064;2023-04-01T09:32:33;96730.88;;;10.76;95.61
18323;BME280;9287;49.456;11.064;2023-04-01T09:35:20;96744.16;;;10.77;95.38
18323;BME280;9287;49.456;11.064;2023-04-01T09:37:54;96737.84;;;10.63;95.33
18323;BME280;9287;49.456;11.064;2023-04-01T09:40:33;96735.47;;;10.51;98.04
18323;BME280;9287;49.456;11.064;2023-04-01T09:43:21;96735.38;;;10.40;99.89
18323;BME280;9287;49.456;11.064;2023-04-01T09:46:15;96754.97;;;10.53;100.00
18323;BME280;9287;49.456;11.064;2023-04-01T09:48:58;96742.09;;;10.53;99.33
18323;BME280;9287;49.456;11.064;2023-04-01T09:51:37;96749.44;;;10.45;99.39
18323;BME280;9287;49.456;11.064;2023-04-01T09:54:22;96738.59;;;10.53;100.00
18323;BME280;9287;49.456;11.064;2023-04-01T09:57:15;96732.38;;;10.56;100.00
18323;BME280;9287;49.456;11.064;2023-04-01T10:09:23;96776.59;;;10.21;100.00
18323;BME280;9287;49.456;11.064;2023-04-01T10:18:50;96743.97;;;9.91;100.00
18323;BME280;9287;49.456;11.064;2023-04-01T10:21:33;96758.38;;;9.91;100.00
18323;BME280;9287;49.456;11.064;2023-04-01T10:24:24;96762.13;;;9.72;100.00
18323;BME280;9287;49.456;11.064;2023-04-01T10:27:10;96762.22;;;9.83;100.00
18323;BME280;9287;49.456;11.064;2023-04-01T10:30:06;96764.59;;;9.85;100.00
18323;BME280;9287;49.456;11.064;2023-04-01T10:33:10;96763.34;;;9.78;100.00
18323;BME280;9287;49.456;11.064;2023-04-01T10:36:20;96754.44;;;9.82;100.00
18323;BME280;9287;49.456;11.064;2023-04-01T10:45:38;96752.03;;;9.76;100.00
18323;BME280;9287;49.456;11.064;2023-04-01T10:48:29;96745.50;;;9.44;100.00
18323;BME280;9287;49.456;11.064;2023-04-01T10:51:14;96740.84;;;9.45;100.00
18323;BME280;9287;49.456;11.064;2023-04-01T10:54:09;96744.97;;;9.28;100.00
18323;BME280;9287;49.456;11.064;2023-04-01T10:56:50;96744.56;;;9.26;100.00
18323;BME280;9287;49.456;11.064;2023-04-01T10:59:36;96744.56;;;9.26;100.00
18323;BME280;9287;49.456;11.064;2023-04-01T11:12:16;96747.13;;;9.49;100.00
18323;BME280;9287;49.456;11.064;2023-04-01T11:18:18;96746.84;;;9.61;100.00
18323;BME280;9287;49.456;11.064;2023-04-01T11:21:29;96753.41;;;9.56;100.00
18323;BME280;9287;49.456;11.064;2023-04-01T11:24:15;96747.81;;;9.42;100.00
18323;BME280;9287;49.456;11.064;2023-04-01T11:26:55;96748.66;;;9.46;100.00
18323;BME280;9287;49.456;11.064;2023-04-01T11:29:44;96751.72;;;9.41;100.00
18323;BME280;9287;49.456;11.064;2023-04-01T11:32:42;96746.63;;;9.39;100.00
18323;BME280;9287;49.456;11.064;2023-04-01T11:35:32;96754.09;;;9.46;100.00
18323;BME280;9287;49.456;11.064;2023-04-01T11:38:25;96730.66;;;9.38;100.00
18323;BME280;9287;49.456;11.064;2023-04-01T11:41:01;96760.16;;;9.29;100.00
18323;BME280;9287;49.456;11.064;2023-04-01T11:43:35;96751.19;;;9.28;100.00
18323;BME280;9287;49.456;11.064;2023-04-01T11:46:10;96758.25;;;9.33;100.00
18323;BME280;9287;49.456;11.064;2023-04-01T11:48:53;96750.09;;;9.33;100.00
18323;BME280;9287;49.456;11.064;2023-04-01T11:51:47;96763.34;;;9.38;100.00
18323;BME280;9287;49.456;11.064;2023-04-01T11:54:49;96750.88;;;9.33;100.00
18323;BME280;9287;49.456;11.064;2023-04-01T11:57:37;96773.19;;;9.46;100.00
18323;BME280;9287;49.456;11.064;2023-04-01T12:00:31;96760.19;;;9.32;100.00
18323;BME280;9287;49.456;11.064;2023-04-01T12:03:15;96755.41;;;9.22;100.00
18323;BME280;9287;49.456;11.064;2023-04-01T12:05:53;96770.91;;;9.15;100.00
18323;BME280;9287;49.456;11.064;2023-04-01T12:08:31;96756.81;;;9.09;100.00
18323;BME280;9287;49.456;11.064;2023-04-01T12:11:08;96767.66;;;9.05;100.00
18323;BME280;9287;49.456;11.064;2023-04-01T12:13:47;96767.75;;;9.13;100.00
18323;BME280;9287;49.456;11.064;2023-04-01T12:16:29;96770.16;;;9.18;100.00
18323;BME280;9287;49.456;11.064;2023-04-01T12:19:13;96762.53;;;9.34;100.00
18323;BME280;9287;49.456;11.064;2023-04-01T12:21:50;96768.91;;;9.49;100.00
18323;BME280;9287;49.456;11.064;2023-04-01T12:24:32;96765.47;;;9.55;100.00
18323;BME280;9287;49.456;11.064;2023-04-01T12:27:14;96765.22;;;9.67;100.00
18323;BME280;9287;49.456;11.064;2023-04-01T12:30:06;96760.63;;;9.78;100.00
18323;BME280;9287;49.456;11.064;2023-04-01T12:32:46;96770.72;;;9.74;100.00
18323;BME280;9287;49.456;11.064;2023-04-01T12:35:30;96763.56;;;9.59;100.00
18323;BME280;9287;49.456;11.064;2023-04-01T12:38:15;96765.00;;;9.46;100.00
18323;BME280;9287;49.456;11.064;2023-04-01T12:40:54;96768.19;;;9.55;100.00
18323;BME280;9287;49.456;11.064;2023-04-01T12:44:00;96765.06;;;9.53;100.00
18323;BME280;9287;49.456;11.064;2023-04-01T12:46:45;96768.78;;;9.38;100.00
18323;BME280;9287;49.456;11.064;2023-04-01T12:49:40;96775.16;;;9.53;100.00
18323;BME280;9287;49.456;11.064;2023-04-01T12:52:20;96772.22;;;9.68;100.00
18323;BME280;9287;49.456;11.064;2023-04-01T12:55:19;96768.72;;;9.71;100.00
18323;BME280;9287;49.456;11.064;2023-04-01T12:58:06;96759.75;;;9.67;100.00
18323;BME280;9287;49.456;11.064;2023-04-01T13:00:53;96760.63;;;9.78;100.00
18323;BME280;9287;49.456;11.064;2023-04-01T13:03:37;96762.22;;;9.83;100.00
18323;BME280;9287;49.456;11.064;2023-04-01T13:06:26;96763.75;;;9.81;100.00
18323;BME280;9287;49.456;11.064;2023-04-01T13:09:06;96776.97;;;9.78;100.00
18323;BME280;9287;49.456;11.064;2023-04-01T13:11:53;96769.13;;;9.73;100.00
18323;BME280;9287;49.456;11.064;2023-04-01T13:14:50;96771.91;;;9.77;100.00
18323;BME280;9287;49.456;11.064;2023-04-01T13:17:30;96789.13;;;9.85;100.00
18323;BME280;9287;49.456;11.064;2023-04-01T13:20:06;96779.41;;;9.91;100.00
18323;BME280;9287;49.456;11.064;2023-04-01T13:22:51;96781.09;;;10.06;100.00
18323;BME280;9287;49.456;11.064;2023-04-01T13:25:32;96786.72;;;10.20;100.00
18323;BME280;9287;49.456;11.064;2023-04-01T13:28:12;96784.03;;;10.27;100.00
18323;BME280;9287;49.456;11.064;2023-04-01T13:30:48;96788.28;;;10.21;100.00
18323;BME280;9287;49.456;11.064;2023-04-01T13:33:25;96786.72;;;10.20;100.00
18323;BME280;9287;49.456;11.064;2023-04-01T13:36:07;96788.31;;;10.28;100.00
18323;BME280;9287;49.456;11.064;2023-04-01T13:38:55;96774.34;;;10.40;100.00
18323;BME280;9287;49.456;11.064;2023-04-01T13:41:40;96786.16;;;10.52;100.00
18323;BME280;9287;49.456;11.064;2023-04-01T13:44:17;96785.47;;;10.69;100.00
18323;BME280;9287;49.456;11.064;2023-04-01T13:50:01;96776.75;;;10.45;100.00
18323;BME280;9287;49.456;11.064;2023-04-01T13:53:09;96781.34;;;10.34;100.00
18323;BME280;9287;49.456;11.064;2023-04-01T13:55:55;96799.97;;;10.25;100.00
18323;BME280;9287;49.456;11.064;2023-04-01T13:58:38;96784.50;;;10.36;100.00
18323;BME280;9287;49.456;11.064;2023-04-01T14:01:13;96783.75;;;10.46;100.00
18323;BME280;9287;49.456;11.064;2023-04-01T14:03:55;96793.16;;;10.53;100.00
18323;BME280;9287;49.456;11.064;2023-04-01T14:06:35;96802.44;;;10.41;100.00
18323;BME280;9287;49.456;11.064;2023-04-01T14:12:15;96785.88;;;10.16;100.00
18323;BME280;9287;49.456;11.064;2023-04-01T14:15:03;96798.25;;;10.06;100.00
18323;BME280;9287;49.456;11.064;2023-04-01T14:17:47;96785.81;;;10.09;100.00
18323;BME280;9287;49.456;11.064;2023-04-01T14:20:25;96799.09;;;10.14;100.00
18323;BME280;9287;49.456;11.064;2023-04-01T14:29:14;96804.44;;;10.00;100.00
18323;BME280;9287;49.456;11.064;2023-04-01T14:31:51;96786.41;;;9.85;100.00
18323;BME280;9287;49.456;11.064;2023-04-01T14:34:41;96810.53;;;9.83;100.00
18323;BME280;9287;49.456;11.064;2023-04-01T14:43:14;96804.66;;;9.81;100.00
18323;BME280;9287;49.456;11.064;2023-04-01T14:46:13;96800.31;;;9.76;100.00
18323;BME280;9287;49.456;11.064;2023-04-01T14:48:54;96808.91;;;9.78;100.00
18323;BME280;9287;49.456;11.064;2023-04-01T14:51:29;96812.00;;;9.76;100.00
18323;BME280;9287;49.456;11.064;2023-04-01T14:54:05;96806.56;;;9.76;100.00
18323;BME280;9287;49.456;11.064;2023-04-01T14:56:41;96818.16;;;9.66;100.00
18323;BME280;9287;49.456;11.064;2023-04-01T14:59:14;96815.47;;;9.73;100.00
18323;BME280;9287;49.456;11.064;2023-04-01T15:01:50;96815.06;;;9.71;100.00
18323;BME280;9287;49.456;11.064;2023-04-01T15:04:41;96820.50;;;9.68;100.00
18323;BME280;9287;49.456;11.064;2023-04-01T15:07:21;96825.19;;;9.71;100.00
18323;BME280;9287;49.456;11.064;2023-04-01T15:09:59;96824.56;;;9.85;100.00
18323;BME280;9287;49.456;11.064;2023-04-01T15:12:38;96815.28;;;9.93;100.00
18323;BME280;9287;49.456;11.064;2023-04-01T15:15:21;96818.41;;;9.95;100.00